sensor_id;sensor_type;location;lat;lon;timestamp;temperature;humidity
25332;DHT22;13284;52.748;13.452;2023-04-24T00:00:15;10.70;99.90
25332;DHT22;13284;52.748;13.452;2023-04-24T00:02:44;10.70;99.90
25332;DHT22;13284;52.748;13.452;2023-04-24T00:05:13;10.70;99.90
25332;DHT22;13284;52.748;13.452;2023-04-24T00:07:39;10.70;99.90
25332;DHT22;13284;52.748;13.452;2023-04-24T00:10:06;10.70;99.90
25332;DHT22;13284;52.748;13.452;2023-04-24T00:12:31;10.60;99.90
25332;DHT22;13284;52.748;13.452;2023-04-24T00:14:57;10.60;99.90
25332;DHT22;13284;52.748;13.452;2023-04-24T00:17:23;10.50;99.90
25332;DHT22;13284;52.748;13.452;2023-04-24T00:19:48;10.40;99.90
25332;DHT22;13284;52.748;13.452;2023-04-24T00:22:16;10.40;99.90
25332;DHT22;13284;52.748;13.452;2023-04-24T00:24:42;10.40;99.90
25332;DHT22;13284;52.748;13.452;2023-04-24T00:27:08;10.40;99.90
25332;DHT22;13284;52.748;13.452;2023-04-24T00:29:33;10.30;99.90
25332;DHT22;13284;52.748;13.452;2023-04-24T00:31:59;10.30;99.90
25332;DHT22;13284;52.748;13.452;2023-04-24T00:34:26;10.30;99.90
25332;DHT22;13284;52.748;13.452;2023-04-24T00:36:51;10.20;99.90
25332;DHT22;13284;52.748;13.452;2023-04-24T00:39:21;10.20;99.90
25332;DHT22;13284;52.748;13.452;2023-04-24T00:41:47;10.20;99.90
25332;DHT22;13284;52.748;13.452;2023-04-24T00:44:14;10.10;99.90
25332;DHT22;13284;52.748;13.452;2023-04-24T00:46:39;10.10;99.90
25332;DHT22;13284;52.748;13.452;2023-04-24T00:49:05;10.10;99.90
25332;DHT22;13284;52.748;13.452;2023-04-24T00:51:32;10.10;99.90
25332;DHT22;13284;52.748;13.452;2023-04-24T00:53:58;10.00;99.90
25332;DHT22;13284;52.748;13.452;2023-04-24T00:56:24;10.10;99.90
25332;DHT22;13284;52.748;13.452;2023-04-24T00:58:50;10.10;99.90
25332;DHT22;13284;52.748;13.452;2023-04-24T01:01:15;10.10;99.90
25332;DHT22;13284;52.748;13.452;2023-04-24T01:03:41;10.20;99.90
25332;DHT22;13284;52.748;13.452;2023-04-24T01:06:08;10.20;99.90
25332;DHT22;13284;52.748;13.452;2023-04-24T01:08:34;10.20;99.90
25332;DHT22;13284;52.748;13.452;2023-04-24T01:11:03;10.30;99.90
25332;DHT22;13284;52.748;13.452;2023-04-24T01:13:29;10.40;99.90
25332;DHT22;13284;52.748;13.452;2023-04-24T01:15:54;10.40;99.90
25332;DHT22;13284;52.748;13.452;2023-04-24T01:18:20;10.50;99.90
25332;DHT22;13284;52.748;13.452;2023-04-24T01:20:47;10.60;99.90
25332;DHT22;13284;52.748;13.452;2023-04-24T01:23:15;10.60;99.90
25332;DHT22;13284;52.748;13.452;2023-04-24T01:25:41;10.60;99.90
25332;DHT22;13284;52.748;13.452;2023-04-24T01:28:07;10.70;99.90
25332;DHT22;13284;52.748;13.452;2023-04-24T01:30:32;10.70;99.90
25332;DHT22;13284;52.748;13.452;2023-04-24T01:32:58;10.80;99.90
25332;DHT22;13284;52.748;13.452;2023-04-24T01:35:24;10.80;99.90
25332;DHT22;13284;52.748;13.452;2023-04-24T01:37:50;10.90;99.90
25332;DHT22;13284;52.748;13.452;2023-04-24T01:40:16;10.90;99.90
25332;DHT22;13284;52.748;13.452;2023-04-24T01:42:41;11.00;99.90
25332;DHT22;13284;52.748;13.452;2023-04-24T01:45:09;11.00;99.90
25332;DHT22;13284;52.748;13.452;2023-04-24T01:47:35;11.10;99.90
25332;DHT22;13284;52.748;13.452;2023-04-24T01:50:01;11.10;99.90
25332;DHT22;13284;52.748;13.452;2023-04-24T01:52:26;11.20;99.90
25332;DHT22;13284;52.748;13.452;2023-04-24T01:54:54;11.20;99.90
25332;DHT22;13284;52.748;13.452;2023-04-24T01:57:21;11.30;99.90
25332;DHT22;13284;52.748;13.452;2023-04-24T01:59:46;11.30;99.90
25332;DHT22;13284;52.748;13.452;2023-04-24T02:02:12;11.40;99.90
25332;DHT22;13284;52.748;13.452;2023-04-24T02:04:37;11.40;99.90
25332;DHT22;13284;52.748;13.452;2023-04-24T02:07:03;11.50;99.90
25332;DHT22;13284;52.748;13.452;2023-04-24T02:09:28;11.50;99.90
25332;DHT22;13284;52.748;13.452;2023-04-24T02:11:54;11.50;99.90
25332;DHT22;13284;52.748;13.452;2023-04-24T02:14:25;11.50;99.90
25332;DHT22;13284;52.748;13.452;2023-04-24T02:16:51;11.60;99.90
25332;DHT22;13284;52.748;13.452;2023-04-24T02:19:16;11.60;99.90
25332;DHT22;13284;52.748;13.452;2023-04-24T02:21:42;11.60;99.90
25332;DHT22;13284;52.748;13.452;2023-04-24T02:24:08;11.60;99.90
25332;DHT22;13284;52.748;13.452;2023-04-24T02:26:33;11.60;99.90
25332;DHT22;13284;52.748;13.452;2023-04-24T02:28:59;11.60;99.90
25332;DHT22;13284;52.748;13.452;2023-04-24T02:31:24;11.50;99.90
25332;DHT22;13284;52.748;13.452;2023-04-24T02:33:50;11.50;99.90
25332;DHT22;13284;52.748;13.452;2023-04-24T02:36:16;11.50;99.90
25332;DHT22;13284;52.748;13.452;2023-04-24T02:38:41;11.50;99.90
25332;DHT22;13284;52.748;13.452;2023-04-24T02:41:07;11.50;99.90
25332;DHT22;13284;52.748;13.452;2023-04-24T02:43:32;11.50;99.90
25332;DHT22;13284;52.748;13.452;2023-04-24T02:45:59;11.50;99.90
25332;DHT22;13284;52.748;13.452;2023-04-24T02:48:24;11.50;99.90
25332;DHT22;13284;52.748;13.452;2023-04-24T02:50:50;11.50;99.90
25332;DHT22;13284;52.748;13.452;2023-04-24T02:53:16;11.40;99.90
25332;DHT22;13284;52.748;13.452;2023-04-24T02:55:41;11.40;99.90
25332;DHT22;13284;52.748;13.452;2023-04-24T02:58:07;11.40;99.90
25332;DHT22;13284;52.748;13.452;2023-04-24T03:00:32;11.40;99.90
25332;DHT22;13284;52.748;13.452;2023-04-24T03:02:58;11.30;99.90
25332;DHT22;13284;52.748;13.452;2023-04-24T03:05:23;11.40;99.90
25332;DHT22;13284;52.748;13.452;2023-04-24T03:07:49;11.30;99.90
25332;DHT22;13284;52.748;13.452;2023-04-24T03:10:15;11.40;99.90
25332;DHT22;13284;52.748;13.452;2023-04-24T03:12:40;11.40;99.90
25332;DHT22;13284;52.748;13.452;2023-04-24T03:15:06;11.40;99.90
25332;DHT22;13284;52.748;13.452;2023-04-24T03:17:32;11.40;99.90
25332;DHT22;13284;52.748;13.452;2023-04-24T03:19:58;11.40;99.90
25332;DHT22;13284;52.748;13.452;2023-04-24T03:22:23;11.40;99.90
25332;DHT22;13284;52.748;13.452;2023-04-24T03:24:49;11.40;99.90
25332;DHT22;13284;52.748;13.452;2023-04-24T03:27:14;11.40;99.90
25332;DHT22;13284;52.748;13.452;2023-04-24T03:29:40;11.40;99.90
25332;DHT22;13284;52.748;13.452;2023-04-24T03:32:06;11.40;99.90
25332;DHT22;13284;52.748;13.452;2023-04-24T03:34:31;11.50;99.90
25332;DHT22;13284;52.748;13.452;2023-04-24T03:36:57;11.40;99.90
25332;DHT22;13284;52.748;13.452;2023-04-24T03:39:22;11.40;99.90
25332;DHT22;13284;52.748;13.452;2023-04-24T03:41:48;11.40;99.90
25332;DHT22;13284;52.748;13.452;2023-04-24T03:44:13;11.40;99.90
25332;DHT22;13284;52.748;13.452;2023-04-24T03:46:39;11.40;99.90
25332;DHT22;13284;52.748;13.452;2023-04-24T03:49:04;11.40;99.90
25332;DHT22;13284;52.748;13.452;2023-04-24T03:51:30;11.40;99.90
25332;DHT22;13284;52.748;13.452;2023-04-24T03:53:56;11.50;99.90
25332;DHT22;13284;52.748;13.452;2023-04-24T03:56:21;11.50;99.90
25332;DHT22;13284;52.748;13.452;2023-04-24T03:58:47;11.40;99.90
25332;DHT22;13284;52.748;13.452;2023-04-24T04:01:12;11.50;99.90
25332;DHT22;13284;52.748;13.452;2023-04-24T04:03:38;11.50;99.90
25332;DHT22;13284;52.748;13.452;2023-04-24T04:06:04;11.40;99.90
25332;DHT22;13284;52.748;13.452;2023-04-24T04:08:29;11.50;99.90
25332;DHT22;13284;52.748;13.452;2023-04-24T04:10:55;11.50;99.90
25332;DHT22;13284;52.748;13.452;2023-04-24T04:13:21;11.40;99.90
25332;DHT22;13284;52.748;13.452;2023-04-24T04:15:46;11.40;99.90
25332;DHT22;13284;52.748;13.452;2023-04-24T04:18:12;11.50;99.90
25332;DHT22;13284;52.748;13.452;2023-04-24T04:20:37;11.50;99.90
25332;DHT22;13284;52.748;13.452;2023-04-24T04:23:03;11.50;99.90
25332;DHT22;13284;52.748;13.452;2023-04-24T04:25:28;11.50;99.90
25332;DHT22;13284;52.748;13.452;2023-04-24T04:27:54;11.50;99.90
25332;DHT22;13284;52.748;13.452;2023-04-24T04:30:20;11.50;99.90
25332;DHT22;13284;52.748;13.452;2023-04-24T04:32:46;11.50;99.90
25332;DHT22;13284;52.748;13.452;2023-04-24T04:35:11;11.50;99.90
25332;DHT22;13284;52.748;13.452;2023-04-24T04:37:37;11.50;99.90
25332;DHT22;13284;52.748;13.452;2023-04-24T04:40:03;11.50;99.90
25332;DHT22;13284;52.748;13.452;2023-04-24T04:42:32;11.50;99.90
25332;DHT22;13284;52.748;13.452;2023-04-24T04:45:00;11.50;99.90
25332;DHT22;13284;52.748;13.452;2023-04-24T04:47:26;11.60;99.90
25332;DHT22;13284;52.748;13.452;2023-04-24T04:49:51;11.60;99.90
25332;DHT22;13284;52.748;13.452;2023-04-24T04:52:18;11.60;99.90
25332;DHT22;13284;52.748;13.452;2023-04-24T04:54:43;11.60;99.90
25332;DHT22;13284;52.748;13.452;2023-04-24T04:57:09;11.50;99.90
25332;DHT22;13284;52.748;13.452;2023-04-24T04:59:35;11.60;99.90
25332;DHT22;13284;52.748;13.452;2023-04-24T05:02:01;11.60;99.90
25332;DHT22;13284;52.748;13.452;2023-04-24T05:04:26;11.50;99.90
25332;DHT22;13284;52.748;13.452;2023-04-24T05:06:52;11.60;99.90
25332;DHT22;13284;52.748;13.452;2023-04-24T05:09:18;11.60;99.90
25332;DHT22;13284;52.748;13.452;2023-04-24T05:11:44;11.70;99.90
25332;DHT22;13284;52.748;13.452;2023-04-24T05:14:09;11.70;99.90
25332;DHT22;13284;52.748;13.452;2023-04-24T05:16:35;11.70;99.90
25332;DHT22;13284;52.748;13.452;2023-04-24T05:19:02;11.80;99.90
25332;DHT22;13284;52.748;13.452;2023-04-24T05:21:27;11.80;99.90
25332;DHT22;13284;52.748;13.452;2023-04-24T05:23:53;11.90;99.90
25332;DHT22;13284;52.748;13.452;2023-04-24T05:26:18;12.00;99.90
25332;DHT22;13284;52.748;13.452;2023-04-24T05:28:44;12.10;99.90
25332;DHT22;13284;52.748;13.452;2023-04-24T05:31:10;12.10;99.90
25332;DHT22;13284;52.748;13.452;2023-04-24T05:33:36;12.20;99.90
25332;DHT22;13284;52.748;13.452;2023-04-24T05:36:01;12.20;99.90
25332;DHT22;13284;52.748;13.452;2023-04-24T05:38:27;12.30;99.90
25332;DHT22;13284;52.748;13.452;2023-04-24T05:40:52;12.30;99.90
25332;DHT22;13284;52.748;13.452;2023-04-24T05:43:18;12.30;99.90
25332;DHT22;13284;52.748;13.452;2023-04-24T05:45:43;12.30;99.90
25332;DHT22;13284;52.748;13.452;2023-04-24T05:48:09;12.30;99.90
25332;DHT22;13284;52.748;13.452;2023-04-24T05:50:35;12.30;99.90
25332;DHT22;13284;52.748;13.452;2023-04-24T05:53:00;12.30;99.90
25332;DHT22;13284;52.748;13.452;2023-04-24T05:55:27;12.30;99.90
25332;DHT22;13284;52.748;13.452;2023-04-24T05:57:53;12.30;99.90
25332;DHT22;13284;52.748;13.452;2023-04-24T06:00:19;12.30;99.90
25332;DHT22;13284;52.748;13.452;2023-04-24T06:02:45;12.30;99.90
25332;DHT22;13284;52.748;13.452;2023-04-24T06:05:11;12.40;99.90
25332;DHT22;13284;52.748;13.452;2023-04-24T06:07:37;12.40;99.90
25332;DHT22;13284;52.748;13.452;2023-04-24T06:10:03;12.50;99.90
25332;DHT22;13284;52.748;13.452;2023-04-24T06:12:28;12.50;99.90
25332;DHT22;13284;52.748;13.452;2023-04-24T06:14:54;12.60;99.90
25332;DHT22;13284;52.748;13.452;2023-04-24T06:17:20;12.60;99.90
25332;DHT22;13284;52.748;13.452;2023-04-24T06:19:46;12.70;99.90
25332;DHT22;13284;52.748;13.452;2023-04-24T06:22:12;12.70;99.90
25332;DHT22;13284;52.748;13.452;2023-04-24T06:24:37;12.80;99.90
25332;DHT22;13284;52.748;13.452;2023-04-24T06:27:03;12.80;99.90
25332;DHT22;13284;52.748;13.452;2023-04-24T06:29:28;12.90;99.90
25332;DHT22;13284;52.748;13.452;2023-04-24T06:31:54;12.90;99.90
25332;DHT22;13284;52.748;13.452;2023-04-24T06:34:19;12.90;99.90
25332;DHT22;13284;52.748;13.452;2023-04-24T06:36:46;13.10;99.90
25332;DHT22;13284;52.748;13.452;2023-04-24T06:39:12;13.10;99.90
25332;DHT22;13284;52.748;13.452;2023-04-24T06:41:37;13.20;99.90
25332;DHT22;13284;52.748;13.452;2023-04-24T06:44:03;13.30;99.90
25332;DHT22;13284;52.748;13.452;2023-04-24T06:46:29;13.40;99.90
25332;DHT22;13284;52.748;13.452;2023-04-24T06:48:55;13.60;99.90
25332;DHT22;13284;52.748;13.452;2023-04-24T06:51:23;13.70;99.90
25332;DHT22;13284;52.748;13.452;2023-04-24T06:53:49;13.80;99.90
25332;DHT22;13284;52.748;13.452;2023-04-24T06:56:15;13.90;99.90
25332;DHT22;13284;52.748;13.452;2023-04-24T06:58:41;14.00;99.90
25332;DHT22;13284;52.748;13.452;2023-04-24T07:01:07;14.00;99.90
25332;DHT22;13284;52.748;13.452;2023-04-24T07:03:32;14.20;99.90
25332;DHT22;13284;52.748;13.452;2023-04-24T07:05:57;14.40;99.90
25332;DHT22;13284;52.748;13.452;2023-04-24T07:08:23;14.50;99.90
25332;DHT22;13284;52.748;13.452;2023-04-24T07:10:49;14.60;99.90
25332;DHT22;13284;52.748;13.452;2023-04-24T07:13:16;14.70;99.90
25332;DHT22;13284;52.748;13.452;2023-04-24T07:15:41;14.90;99.90
25332;DHT22;13284;52.748;13.452;2023-04-24T07:18:07;14.90;99.90
25332;DHT22;13284;52.748;13.452;2023-04-24T07:20:32;14.80;99.90
25332;DHT22;13284;52.748;13.452;2023-04-24T07:22:58;14.80;99.90
25332;DHT22;13284;52.748;13.452;2023-04-24T07:25:24;14.60;99.90
25332;DHT22;13284;52.748;13.452;2023-04-24T07:27:49;14.70;99.90
25332;DHT22;13284;52.748;13.452;2023-04-24T07:30:15;14.90;99.90
25332;DHT22;13284;52.748;13.452;2023-04-24T07:32:41;14.90;99.90
25332;DHT22;13284;52.748;13.452;2023-04-24T07:35:06;14.80;99.90
25332;DHT22;13284;52.748;13.452;2023-04-24T07:37:32;14.90;99.90
25332;DHT22;13284;52.748;13.452;2023-04-24T07:39:58;15.00;99.90
25332;DHT22;13284;52.748;13.452;2023-04-24T07:42:23;15.00;99.90
25332;DHT22;13284;52.748;13.452;2023-04-24T07:44:49;14.90;99.90
25332;DHT22;13284;52.748;13.452;2023-04-24T07:47:15;15.00;99.90
25332;DHT22;13284;52.748;13.452;2023-04-24T07:49:43;15.10;99.90
25332;DHT22;13284;52.748;13.452;2023-04-24T07:52:09;15.10;99.90
25332;DHT22;13284;52.748;13.452;2023-04-24T07:54:35;15.10;99.90
25332;DHT22;13284;52.748;13.452;2023-04-24T07:57:01;15.10;99.90
25332;DHT22;13284;52.748;13.452;2023-04-24T07:59:27;15.30;99.90
25332;DHT22;13284;52.748;13.452;2023-04-24T08:01:53;15.30;99.90
25332;DHT22;13284;52.748;13.452;2023-04-24T08:04:19;15.50;99.90
25332;DHT22;13284;52.748;13.452;2023-04-24T08:06:47;15.60;99.90
25332;DHT22;13284;52.748;13.452;2023-04-24T08:09:12;15.80;99.90
25332;DHT22;13284;52.748;13.452;2023-04-24T08:11:38;16.00;99.90
25332;DHT22;13284;52.748;13.452;2023-04-24T08:14:03;16.10;99.90
25332;DHT22;13284;52.748;13.452;2023-04-24T08:16:29;16.30;99.90
25332;DHT22;13284;52.748;13.452;2023-04-24T08:18:54;16.50;99.90
25332;DHT22;13284;52.748;13.452;2023-04-24T08:21:20;16.70;99.90
25332;DHT22;13284;52.748;13.452;2023-04-24T08:23:46;17.10;99.90
25332;DHT22;13284;52.748;13.452;2023-04-24T08:26:12;17.40;99.90
25332;DHT22;13284;52.748;13.452;2023-04-24T08:28:38;17.80;99.90
25332;DHT22;13284;52.748;13.452;2023-04-24T08:31:04;17.80;99.90
25332;DHT22;13284;52.748;13.452;2023-04-24T08:33:30;17.80;99.90
25332;DHT22;13284;52.748;13.452;2023-04-24T08:36:01;17.80;99.90
25332;DHT22;13284;52.748;13.452;2023-04-24T08:38:27;17.20;99.90
25332;DHT22;13284;52.748;13.452;2023-04-24T08:40:52;17.00;99.90
25332;DHT22;13284;52.748;13.452;2023-04-24T08:43:18;17.20;99.90
25332;DHT22;13284;52.748;13.452;2023-04-24T08:45:46;17.60;99.90
25332;DHT22;13284;52.748;13.452;2023-04-24T08:48:13;17.60;99.90
25332;DHT22;13284;52.748;13.452;2023-04-24T08:50:40;17.30;99.90
25332;DHT22;13284;52.748;13.452;2023-04-24T08:53:08;16.90;99.90
25332;DHT22;13284;52.748;13.452;2023-04-24T08:55:34;17.30;99.90
25332;DHT22;13284;52.748;13.452;2023-04-24T08:58:01;17.70;99.90
25332;DHT22;13284;52.748;13.452;2023-04-24T09:00:43;17.80;99.90
25332;DHT22;13284;52.748;13.452;2023-04-24T09:03:13;17.30;99.90
25332;DHT22;13284;52.748;13.452;2023-04-24T09:05:44;17.10;99.90
25332;DHT22;13284;52.748;13.452;2023-04-24T09:08:13;16.80;99.90
25332;DHT22;13284;52.748;13.452;2023-04-24T09:10:39;16.90;99.90
25332;DHT22;13284;52.748;13.452;2023-04-24T09:13:05;17.30;99.90
25332;DHT22;13284;52.748;13.452;2023-04-24T09:15:34;17.90;99.90
25332;DHT22;13284;52.748;13.452;2023-04-24T09:18:00;18.00;99.90
25332;DHT22;13284;52.748;13.452;2023-04-24T09:20:27;18.20;99.90
25332;DHT22;13284;52.748;13.452;2023-04-24T09:22:57;18.50;99.90
25332;DHT22;13284;52.748;13.452;2023-04-24T09:25:32;18.20;99.90
25332;DHT22;13284;52.748;13.452;2023-04-24T09:28:01;17.80;99.90
25332;DHT22;13284;52.748;13.452;2023-04-24T09:30:27;17.60;99.90
25332;DHT22;13284;52.748;13.452;2023-04-24T09:33:15;17.70;99.90
25332;DHT22;13284;52.748;13.452;2023-04-24T09:35:42;17.50;99.90
25332;DHT22;13284;52.748;13.452;2023-04-24T09:38:08;17.70;99.90
25332;DHT22;13284;52.748;13.452;2023-04-24T09:40:34;17.60;99.90
25332;DHT22;13284;52.748;13.452;2023-04-24T09:43:00;17.40;99.90
25332;DHT22;13284;52.748;13.452;2023-04-24T09:45:37;17.30;99.90
25332;DHT22;13284;52.748;13.452;2023-04-24T09:48:04;17.30;99.90
25332;DHT22;13284;52.748;13.452;2023-04-24T09:50:32;17.30;99.90
25332;DHT22;13284;52.748;13.452;2023-04-24T09:52:59;17.60;99.90
25332;DHT22;13284;52.748;13.452;2023-04-24T09:55:26;17.70;99.90
25332;DHT22;13284;52.748;13.452;2023-04-24T09:57:56;17.50;99.90
25332;DHT22;13284;52.748;13.452;2023-04-24T10:00:32;17.50;99.90
25332;DHT22;13284;52.748;13.452;2023-04-24T10:02:59;17.60;99.90
25332;DHT22;13284;52.748;13.452;2023-04-24T10:05:37;17.60;99.90
25332;DHT22;13284;52.748;13.452;2023-04-24T10:08:08;17.60;99.90
25332;DHT22;13284;52.748;13.452;2023-04-24T10:10:38;17.60;99.90
25332;DHT22;13284;52.748;13.452;2023-04-24T10:13:04;17.40;99.90
25332;DHT22;13284;52.748;13.452;2023-04-24T10:15:30;17.30;99.90
25332;DHT22;13284;52.748;13.452;2023-04-24T10:17:58;17.10;99.90
25332;DHT22;13284;52.748;13.452;2023-04-24T10:20:29;16.80;99.90
25332;DHT22;13284;52.748;13.452;2023-04-24T10:22:56;16.70;99.90
25332;DHT22;13284;52.748;13.452;2023-04-24T10:25:24;16.60;99.90
25332;DHT22;13284;52.748;13.452;2023-04-24T10:27:51;16.70;99.90
25332;DHT22;13284;52.748;13.452;2023-04-24T10:30:19;16.70;99.90
25332;DHT22;13284;52.748;13.452;2023-04-24T10:32:45;16.80;99.90
25332;DHT22;13284;52.748;13.452;2023-04-24T10:35:13;17.10;99.90
25332;DHT22;13284;52.748;13.452;2023-04-24T10:37:59;17.20;99.90
25332;DHT22;13284;52.748;13.452;2023-04-24T10:40:36;17.10;99.90
25332;DHT22;13284;52.748;13.452;2023-04-24T10:43:05;17.00;99.90
25332;DHT22;13284;52.748;13.452;2023-04-24T10:45:33;16.90;99.90
25332;DHT22;13284;52.748;13.452;2023-04-24T10:48:01;16.90;99.90
25332;DHT22;13284;52.748;13.452;2023-04-24T10:50:29;17.20;99.90
25332;DHT22;13284;52.748;13.452;2023-04-24T10:53:07;17.20;99.90
25332;DHT22;13284;52.748;13.452;2023-04-24T10:55:47;17.10;99.90
25332;DHT22;13284;52.748;13.452;2023-04-24T10:58:13;17.10;99.90
25332;DHT22;13284;52.748;13.452;2023-04-24T11:00:40;17.10;99.90
25332;DHT22;13284;52.748;13.452;2023-04-24T11:03:12;16.80;99.90
25332;DHT22;13284;52.748;13.452;2023-04-24T11:06:12;16.60;99.90
25332;DHT22;13284;52.748;13.452;2023-04-24T11:08:44;16.30;99.90
25332;DHT22;13284;52.748;13.452;2023-04-24T11:11:16;16.70;99.90
25332;DHT22;13284;52.748;13.452;2023-04-24T11:19:09;17.30;99.90
25332;DHT22;13284;52.748;13.452;2023-04-24T11:21:55;17.30;99.90
25332;DHT22;13284;52.748;13.452;2023-04-24T11:27:13;17.30;99.90
25332;DHT22;13284;52.748;13.452;2023-04-24T11:29:59;17.50;99.90
25332;DHT22;13284;52.748;13.452;2023-04-24T11:32:47;17.70;99.90
25332;DHT22;13284;52.748;13.452;2023-04-24T11:37:47;17.40;99.90
25332;DHT22;13284;52.748;13.452;2023-04-24T11:40:15;17.70;99.90
25332;DHT22;13284;52.748;13.452;2023-04-24T11:42:44;17.50;99.90
25332;DHT22;13284;52.748;13.452;2023-04-24T11:47:40;17.70;99.90
25332;DHT22;13284;52.748;13.452;2023-04-24T11:50:08;17.70;99.90
25332;DHT22;13284;52.748;13.452;2023-04-24T11:52:38;17.90;99.90
25332;DHT22;13284;52.748;13.452;2023-04-24T11:55:04;18.10;99.90
25332;DHT22;13284;52.748;13.452;2023-04-24T11:57:30;19.20;99.90
25332;DHT22;13284;52.748;13.452;2023-04-24T12:00:00;19.70;99.90
25332;DHT22;13284;52.748;13.452;2023-04-24T12:02:27;20.50;99.90
25332;DHT22;13284;52.748;13.452;2023-04-24T12:04:55;19.70;99.90
25332;DHT22;13284;52.748;13.452;2023-04-24T12:07:22;18.80;99.90
25332;DHT22;13284;52.748;13.452;2023-04-24T12:09:56;18.50;99.90
25332;DHT22;13284;52.748;13.452;2023-04-24T12:12:25;18.40;99.90
25332;DHT22;13284;52.748;13.452;2023-04-24T12:14:58;17.90;99.90
25332;DHT22;13284;52.748;13.452;2023-04-24T12:17:32;17.70;99.90
25332;DHT22;13284;52.748;13.452;2023-04-24T12:20:03;17.70;99.90
25332;DHT22;13284;52.748;13.452;2023-04-24T12:22:53;17.80;99.90
25332;DHT22;13284;52.748;13.452;2023-04-24T12:25:21;18.30;99.90
25332;DHT22;13284;52.748;13.452;2023-04-24T12:30:35;18.40;99.90
25332;DHT22;13284;52.748;13.452;2023-04-24T12:33:07;18.20;99.90
25332;DHT22;13284;52.748;13.452;2023-04-24T12:35:33;19.40;99.90
25332;DHT22;13284;52.748;13.452;2023-04-24T12:38:11;19.20;99.90
25332;DHT22;13284;52.748;13.452;2023-04-24T12:40:38;18.30;99.90
25332;DHT22;13284;52.748;13.452;2023-04-24T12:43:13;17.90;99.90
25332;DHT22;13284;52.748;13.452;2023-04-24T12:45:39;17.40;99.90
25332;DHT22;13284;52.748;13.452;2023-04-24T12:48:05;17.30;99.90
25332;DHT22;13284;52.748;13.452;2023-04-24T12:50:30;17.00;99.90
25332;DHT22;13284;52.748;13.452;2023-04-24T12:52:56;16.90;99.90
25332;DHT22;13284;52.748;13.452;2023-04-24T12:55:21;16.50;99.90
25332;DHT22;13284;52.748;13.452;2023-04-24T12:57:47;16.30;99.90
25332;DHT22;13284;52.748;13.452;2023-04-24T13:00:13;16.20;99.90
25332;DHT22;13284;52.748;13.452;2023-04-24T13:02:39;16.10;99.90
25332;DHT22;13284;52.748;13.452;2023-04-24T13:05:05;16.10;99.90
25332;DHT22;13284;52.748;13.452;2023-04-24T13:07:30;16.00;99.90
25332;DHT22;13284;52.748;13.452;2023-04-24T13:09:56;15.50;99.90
25332;DHT22;13284;52.748;13.452;2023-04-24T13:12:23;15.20;99.90
25332;DHT22;13284;52.748;13.452;2023-04-24T13:14:49;14.70;99.90
25332;DHT22;13284;52.748;13.452;2023-04-24T13:17:15;14.50;99.90
25332;DHT22;13284;52.748;13.452;2023-04-24T13:19:42;15.40;99.90
25332;DHT22;13284;52.748;13.452;2023-04-24T13:22:10;15.60;99.90
25332;DHT22;13284;52.748;13.452;2023-04-24T13:24:36;16.40;99.90
25332;DHT22;13284;52.748;13.452;2023-04-24T13:27:02;16.30;99.90
25332;DHT22;13284;52.748;13.452;2023-04-24T13:29:28;16.00;99.90
25332;DHT22;13284;52.748;13.452;2023-04-24T13:31:54;15.70;99.90
25332;DHT22;13284;52.748;13.452;2023-04-24T13:34:20;15.90;99.90
25332;DHT22;13284;52.748;13.452;2023-04-24T13:36:46;16.20;99.90
25332;DHT22;13284;52.748;13.452;2023-04-24T13:39:11;16.70;99.90
25332;DHT22;13284;52.748;13.452;2023-04-24T13:41:37;17.40;99.90
25332;DHT22;13284;52.748;13.452;2023-04-24T13:44:03;17.80;99.90
25332;DHT22;13284;52.748;13.452;2023-04-24T13:46:29;18.00;99.90
25332;DHT22;13284;52.748;13.452;2023-04-24T13:48:56;18.00;99.90
25332;DHT22;13284;52.748;13.452;2023-04-24T13:51:22;17.70;99.90
25332;DHT22;13284;52.748;13.452;2023-04-24T13:53:48;17.70;99.90
25332;DHT22;13284;52.748;13.452;2023-04-24T13:56:13;17.20;99.90
25332;DHT22;13284;52.748;13.452;2023-04-24T13:58:42;17.00;99.90
25332;DHT22;13284;52.748;13.452;2023-04-24T14:01:08;17.30;99.90
25332;DHT22;13284;52.748;13.452;2023-04-24T14:03:46;17.60;99.90
25332;DHT22;13284;52.748;13.452;2023-04-24T14:06:11;18.00;99.90
25332;DHT22;13284;52.748;13.452;2023-04-24T14:08:37;18.00;99.90
25332;DHT22;13284;52.748;13.452;2023-04-24T14:11:02;18.20;99.90
25332;DHT22;13284;52.748;13.452;2023-04-24T14:13:28;18.10;99.90
25332;DHT22;13284;52.748;13.452;2023-04-24T14:15:56;18.20;99.90
25332;DHT22;13284;52.748;13.452;2023-04-24T14:18:23;18.20;99.90
25332;DHT22;13284;52.748;13.452;2023-04-24T14:20:48;18.20;99.90
25332;DHT22;13284;52.748;13.452;2023-04-24T14:23:14;18.10;99.90
25332;DHT22;13284;52.748;13.452;2023-04-24T14:25:39;17.30;99.90
25332;DHT22;13284;52.748;13.452;2023-04-24T14:28:06;16.90;99.90
25332;DHT22;13284;52.748;13.452;2023-04-24T14:30:31;16.70;99.90
25332;DHT22;13284;52.748;13.452;2023-04-24T14:32:57;16.60;99.90
25332;DHT22;13284;52.748;13.452;2023-04-24T14:35:23;16.60;99.90
25332;DHT22;13284;52.748;13.452;2023-04-24T14:37:48;16.50;99.90
25332;DHT22;13284;52.748;13.452;2023-04-24T14:40:14;16.90;99.90
25332;DHT22;13284;52.748;13.452;2023-04-24T14:42:40;17.00;99.90
25332;DHT22;13284;52.748;13.452;2023-04-24T14:45:06;17.00;99.90
25332;DHT22;13284;52.748;13.452;2023-04-24T14:47:32;16.90;99.90
25332;DHT22;13284;52.748;13.452;2023-04-24T14:49:58;17.20;99.90
25332;DHT22;13284;52.748;13.452;2023-04-24T14:52:23;17.20;99.90
25332;DHT22;13284;52.748;13.452;2023-04-24T14:54:49;17.30;99.90
25332;DHT22;13284;52.748;13.452;2023-04-24T14:57:14;17.30;99.90
25332;DHT22;13284;52.748;13.452;2023-04-24T14:59:40;17.70;99.90
25332;DHT22;13284;52.748;13.452;2023-04-24T15:02:06;18.10;99.90
25332;DHT22;13284;52.748;13.452;2023-04-24T15:04:31;18.20;99.90
25332;DHT22;13284;52.748;13.452;2023-04-24T15:06:57;18.00;99.90
25332;DHT22;13284;52.748;13.452;2023-04-24T15:09:23;17.50;99.90
25332;DHT22;13284;52.748;13.452;2023-04-24T15:11:50;17.50;99.90
25332;DHT22;13284;52.748;13.452;2023-04-24T15:14:16;17.50;99.90
25332;DHT22;13284;52.748;13.452;2023-04-24T15:16:43;17.70;99.90
25332;DHT22;13284;52.748;13.452;2023-04-24T15:19:08;17.70;99.90
25332;DHT22;13284;52.748;13.452;2023-04-24T15:21:36;17.50;99.90
25332;DHT22;13284;52.748;13.452;2023-04-24T15:24:04;17.10;99.90
25332;DHT22;13284;52.748;13.452;2023-04-24T15:26:29;17.00;99.90
25332;DHT22;13284;52.748;13.452;2023-04-24T15:28:55;17.10;99.90